Tropical I — CRLU8 — position and weather

sailwx.info

Track history (hours):
 
Tides and Currents Weather Stations Pressure Air Temp Water Temp Dewpoint Dewpoint Depression Visibility Wind Speed Wind Dir Waves Ship Positions

Tropical I

Last reported at 2015-Jun-21 13:33 UTC. Time now 2015-Jul-03 07:53 UTC.
Position N 38°41' W 009°11'.
Warning: this ship's position is 11 days out of date.

Length 11 m.

Type: Pleasure craft. MMSI: 263818940.

Date/timePositionNaut miles runAvg speedWind from/ knotsBaromVisibWave heightAir tempDewpointWater temp
2015-Jun-21 13:33N 38°41' W 009°11'5 4.6
2015-Jun-21 12:33N 38°41' W 009°17'2 1.9
2015-Jun-21 11:33N 38°40' W 009°15'2 2.0
2015-Jun-21 10:27N 38°42' W 009°12'1 0.0
2015-Jun-20 12:31N 38°41' W 009°12'3 2.9
2015-Jun-20 11:30N 38°41' W 009°16'1 1.4
2015-Jun-20 10:30N 38°41' W 009°14'1 0.1
2015-Jun-19 18:33N 38°41' W 009°12'1 0.6
2015-Jun-19 17:33N 38°41' W 009°12'  
2015-Jun-14 14:17N 38°42' W 009°12'1 1.4
2015-Jun-14 13:32N 38°41' W 009°11'2 2.4
2015-Jun-14 12:33N 38°41' W 009°14'2 1.5
2015-Jun-14 11:24N 38°42' W 009°12'0 0.4
2015-Jun-14 10:30N 38°42' W 009°12'  
Track history (hours):
 
Tides and Currents Weather Stations Pressure Air Temp Water Temp Dewpoint Dewpoint Depression Visibility Wind Speed Wind Dir Waves Ship Positions

Tropical I

Last reported at 2015-Jun-21 13:33 UTC. Time now 2015-Jul-03 07:53 UTC.
Position N 38°41' W 009°11'.
Warning: this ship's position is 11 days out of date.

Length 11 m.

Type: Pleasure craft. MMSI: 263818940.

Date/timePositionNaut miles runAvg speedWind from/ knotsBaromVisibWave heightAir tempDewpointWater temp
2015-Jun-21 13:33N 38°41' W 009°11'5 4.6
2015-Jun-21 12:33N 38°41' W 009°17'2 1.9
2015-Jun-21 11:33N 38°40' W 009°15'2 2.0
2015-Jun-21 10:27N 38°42' W 009°12'1 0.0
2015-Jun-20 12:31N 38°41' W 009°12'3 2.9
2015-Jun-20 11:30N 38°41' W 009°16'1 1.4
2015-Jun-20 10:30N 38°41' W 009°14'1 0.1
2015-Jun-19 18:33N 38°41' W 009°12'1 0.6
2015-Jun-19 17:33N 38°41' W 009°12'  
2015-Jun-14 14:17N 38°42' W 009°12'1 1.4
2015-Jun-14 13:32N 38°41' W 009°11'2 2.4
2015-Jun-14 12:33N 38°41' W 009°14'2 1.5
2015-Jun-14 11:24N 38°42' W 009°12'0 0.4
2015-Jun-14 10:30N 38°42' W 009°12'  

Dump ship's entire track history